sensor_id;sensor_type;location;lat;lon;timestamp;P1;durP1;ratioP1;P2;durP2;ratioP2
51288;SDS011;37372;52.294;5.152;2024-03-22T00:01:55;48.75;;;20.95;;
51288;SDS011;37372;52.294;5.152;2024-03-22T00:04:21;46.47;;;20.57;;
51288;SDS011;37372;52.294;5.152;2024-03-22T00:06:50;49.78;;;20.63;;
51288;SDS011;37372;52.294;5.152;2024-03-22T00:09:16;48.58;;;21.42;;
51288;SDS011;37372;52.294;5.152;2024-03-22T00:11:45;48.13;;;21.15;;
51288;SDS011;37372;52.294;5.152;2024-03-22T00:14:13;48.90;;;21.57;;
51288;SDS011;37372;52.294;5.152;2024-03-22T00:16:39;50.07;;;21.30;;
51288;SDS011;37372;52.294;5.152;2024-03-22T00:19:05;50.53;;;21.77;;
51288;SDS011;37372;52.294;5.152;2024-03-22T00:21:30;48.95;;;22.65;;
51288;SDS011;37372;52.294;5.152;2024-03-22T00:23:56;53.70;;;22.03;;
51288;SDS011;37372;52.294;5.152;2024-03-22T00:26:25;55.10;;;21.60;;
51288;SDS011;37372;52.294;5.152;2024-03-22T00:28:50;53.92;;;22.65;;
51288;SDS011;37372;52.294;5.152;2024-03-22T00:31:16;56.57;;;22.87;;
51288;SDS011;37372;52.294;5.152;2024-03-22T00:33:42;59.50;;;23.70;;
51288;SDS011;37372;52.294;5.152;2024-03-22T00:36:08;56.55;;;21.55;;
51288;SDS011;37372;52.294;5.152;2024-03-22T00:38:33;57.57;;;21.93;;
51288;SDS011;37372;52.294;5.152;2024-03-22T00:40:58;52.90;;;21.63;;
51288;SDS011;37372;52.294;5.152;2024-03-22T00:43:27;55.87;;;21.83;;
51288;SDS011;37372;52.294;5.152;2024-03-22T00:45:52;55.63;;;21.80;;
51288;SDS011;37372;52.294;5.152;2024-03-22T00:48:18;55.40;;;22.47;;
51288;SDS011;37372;52.294;5.152;2024-03-22T00:50:43;57.63;;;22.20;;
51288;SDS011;37372;52.294;5.152;2024-03-22T00:53:09;53.33;;;20.97;;
51288;SDS011;37372;52.294;5.152;2024-03-22T00:55:35;51.67;;;20.75;;
51288;SDS011;37372;52.294;5.152;2024-03-22T00:58:00;57.80;;;21.43;;
51288;SDS011;37372;52.294;5.152;2024-03-22T01:00:26;53.67;;;21.33;;
51288;SDS011;37372;52.294;5.152;2024-03-22T01:02:51;53.23;;;21.00;;
51288;SDS011;37372;52.294;5.152;2024-03-22T01:05:17;58.53;;;22.30;;
51288;SDS011;37372;52.294;5.152;2024-03-22T01:07:43;53.05;;;20.85;;
51288;SDS011;37372;52.294;5.152;2024-03-22T01:10:11;56.27;;;20.73;;
51288;SDS011;37372;52.294;5.152;2024-03-22T01:12:44;55.28;;;20.85;;
51288;SDS011;37372;52.294;5.152;2024-03-22T01:15:09;52.42;;;20.52;;
51288;SDS011;37372;52.294;5.152;2024-03-22T01:17:35;53.67;;;20.48;;
51288;SDS011;37372;52.294;5.152;2024-03-22T01:20:01;54.40;;;19.87;;
51288;SDS011;37372;52.294;5.152;2024-03-22T01:22:27;59.43;;;21.07;;
51288;SDS011;37372;52.294;5.152;2024-03-22T01:24:53;60.00;;;20.13;;
51288;SDS011;37372;52.294;5.152;2024-03-22T01:27:19;54.42;;;20.38;;
51288;SDS011;37372;52.294;5.152;2024-03-22T01:29:46;56.30;;;21.30;;
51288;SDS011;37372;52.294;5.152;2024-03-22T01:32:12;58.78;;;21.20;;
51288;SDS011;37372;52.294;5.152;2024-03-22T01:34:37;53.67;;;20.67;;
51288;SDS011;37372;52.294;5.152;2024-03-22T01:37:03;57.57;;;20.30;;
51288;SDS011;37372;52.294;5.152;2024-03-22T01:39:31;56.13;;;20.58;;
51288;SDS011;37372;52.294;5.152;2024-03-22T01:41:58;56.25;;;21.10;;
51288;SDS011;37372;52.294;5.152;2024-03-22T01:44:31;63.10;;;20.87;;
51288;SDS011;37372;52.294;5.152;2024-03-22T01:46:57;58.85;;;21.58;;
51288;SDS011;37372;52.294;5.152;2024-03-22T01:49:24;56.05;;;21.10;;
51288;SDS011;37372;52.294;5.152;2024-03-22T01:51:51;55.97;;;20.67;;
51288;SDS011;37372;52.294;5.152;2024-03-22T01:54:17;58.25;;;20.95;;
51288;SDS011;37372;52.294;5.152;2024-03-22T01:56:48;56.83;;;20.83;;
51288;SDS011;37372;52.294;5.152;2024-03-22T01:59:14;58.90;;;21.48;;
51288;SDS011;37372;52.294;5.152;2024-03-22T02:01:40;57.47;;;21.50;;
51288;SDS011;37372;52.294;5.152;2024-03-22T02:04:06;56.60;;;22.17;;
51288;SDS011;37372;52.294;5.152;2024-03-22T02:06:32;60.47;;;21.58;;
51288;SDS011;37372;52.294;5.152;2024-03-22T02:08:57;63.43;;;22.10;;
51288;SDS011;37372;52.294;5.152;2024-03-22T02:11:23;63.22;;;21.10;;
51288;SDS011;37372;52.294;5.152;2024-03-22T02:13:50;58.70;;;20.60;;
51288;SDS011;37372;52.294;5.152;2024-03-22T02:16:19;68.13;;;22.00;;
51288;SDS011;37372;52.294;5.152;2024-03-22T02:18:51;53.63;;;20.95;;
51288;SDS011;37372;52.294;5.152;2024-03-22T02:21:16;58.70;;;20.75;;
51288;SDS011;37372;52.294;5.152;2024-03-22T02:24:00;63.65;;;22.45;;
51288;SDS011;37372;52.294;5.152;2024-03-22T02:26:25;60.20;;;22.67;;
51288;SDS011;37372;52.294;5.152;2024-03-22T02:28:51;57.80;;;22.27;;
51288;SDS011;37372;52.294;5.152;2024-03-22T02:31:24;61.70;;;20.90;;
51288;SDS011;37372;52.294;5.152;2024-03-22T02:33:53;64.47;;;22.50;;
51288;SDS011;37372;52.294;5.152;2024-03-22T02:36:18;58.13;;;21.13;;
51288;SDS011;37372;52.294;5.152;2024-03-22T02:38:43;59.47;;;20.73;;
51288;SDS011;37372;52.294;5.152;2024-03-22T02:41:11;64.23;;;21.00;;
51288;SDS011;37372;52.294;5.152;2024-03-22T02:43:38;60.22;;;20.90;;
51288;SDS011;37372;52.294;5.152;2024-03-22T02:46:03;61.93;;;21.67;;
51288;SDS011;37372;52.294;5.152;2024-03-22T02:48:28;63.53;;;21.45;;
51288;SDS011;37372;52.294;5.152;2024-03-22T02:50:55;58.03;;;21.43;;
51288;SDS011;37372;52.294;5.152;2024-03-22T02:53:21;65.68;;;20.83;;
51288;SDS011;37372;52.294;5.152;2024-03-22T02:55:46;61.00;;;21.00;;
51288;SDS011;37372;52.294;5.152;2024-03-22T02:58:12;61.15;;;20.90;;
51288;SDS011;37372;52.294;5.152;2024-03-22T03:00:37;67.90;;;21.73;;
51288;SDS011;37372;52.294;5.152;2024-03-22T03:03:03;61.53;;;20.63;;
51288;SDS011;37372;52.294;5.152;2024-03-22T03:05:32;56.07;;;19.50;;
51288;SDS011;37372;52.294;5.152;2024-03-22T03:07:58;56.88;;;20.45;;
51288;SDS011;37372;52.294;5.152;2024-03-22T03:10:23;53.03;;;19.10;;
51288;SDS011;37372;52.294;5.152;2024-03-22T03:12:48;50.57;;;18.37;;
51288;SDS011;37372;52.294;5.152;2024-03-22T03:15:20;47.27;;;18.10;;
51288;SDS011;37372;52.294;5.152;2024-03-22T03:17:46;49.33;;;18.52;;
51288;SDS011;37372;52.294;5.152;2024-03-22T03:20:12;48.78;;;18.27;;
51288;SDS011;37372;52.294;5.152;2024-03-22T03:22:41;42.50;;;17.55;;
51288;SDS011;37372;52.294;5.152;2024-03-22T03:25:08;45.90;;;17.73;;
51288;SDS011;37372;52.294;5.152;2024-03-22T03:27:34;50.53;;;18.17;;
51288;SDS011;37372;52.294;5.152;2024-03-22T03:30:00;51.85;;;18.42;;
51288;SDS011;37372;52.294;5.152;2024-03-22T03:32:26;49.93;;;17.63;;
51288;SDS011;37372;52.294;5.152;2024-03-22T03:34:52;45.35;;;17.58;;
51288;SDS011;37372;52.294;5.152;2024-03-22T03:37:17;53.10;;;17.67;;
51288;SDS011;37372;52.294;5.152;2024-03-22T03:39:43;46.22;;;17.40;;
51288;SDS011;37372;52.294;5.152;2024-03-22T03:42:18;49.35;;;18.02;;
51288;SDS011;37372;52.294;5.152;2024-03-22T03:44:43;53.27;;;18.13;;
51288;SDS011;37372;52.294;5.152;2024-03-22T03:47:12;46.45;;;17.00;;
51288;SDS011;37372;52.294;5.152;2024-03-22T03:49:37;50.23;;;18.47;;
51288;SDS011;37372;52.294;5.152;2024-03-22T03:52:02;44.03;;;15.93;;
51288;SDS011;37372;52.294;5.152;2024-03-22T03:54:28;47.53;;;15.60;;
51288;SDS011;37372;52.294;5.152;2024-03-22T03:56:53;43.47;;;14.37;;
51288;SDS011;37372;52.294;5.152;2024-03-22T03:59:19;44.07;;;16.10;;
51288;SDS011;37372;52.294;5.152;2024-03-22T04:01:44;42.73;;;15.13;;
51288;SDS011;37372;52.294;5.152;2024-03-22T04:04:10;40.27;;;14.57;;
51288;SDS011;37372;52.294;5.152;2024-03-22T04:06:36;40.83;;;15.30;;
51288;SDS011;37372;52.294;5.152;2024-03-22T04:09:01;38.55;;;15.15;;
51288;SDS011;37372;52.294;5.152;2024-03-22T04:11:28;40.65;;;14.75;;
51288;SDS011;37372;52.294;5.152;2024-03-22T04:13:53;42.33;;;14.87;;
51288;SDS011;37372;52.294;5.152;2024-03-22T04:16:21;36.60;;;14.27;;
51288;SDS011;37372;52.294;5.152;2024-03-22T04:18:46;38.08;;;13.98;;
51288;SDS011;37372;52.294;5.152;2024-03-22T04:21:12;42.00;;;14.47;;
51288;SDS011;37372;52.294;5.152;2024-03-22T04:23:37;36.90;;;14.30;;
51288;SDS011;37372;52.294;5.152;2024-03-22T04:26:06;38.03;;;14.10;;
51288;SDS011;37372;52.294;5.152;2024-03-22T04:28:32;38.87;;;13.63;;
51288;SDS011;37372;52.294;5.152;2024-03-22T04:31:01;39.90;;;14.20;;
51288;SDS011;37372;52.294;5.152;2024-03-22T04:33:27;35.65;;;13.60;;
51288;SDS011;37372;52.294;5.152;2024-03-22T04:35:54;37.35;;;13.90;;
51288;SDS011;37372;52.294;5.152;2024-03-22T04:38:22;31.23;;;13.60;;
51288;SDS011;37372;52.294;5.152;2024-03-22T04:40:48;31.83;;;12.68;;
51288;SDS011;37372;52.294;5.152;2024-03-22T04:43:16;40.23;;;13.33;;
51288;SDS011;37372;52.294;5.152;2024-03-22T04:45:43;38.63;;;13.23;;
51288;SDS011;37372;52.294;5.152;2024-03-22T04:48:09;34.40;;;13.45;;
51288;SDS011;37372;52.294;5.152;2024-03-22T04:50:35;34.93;;;12.60;;
51288;SDS011;37372;52.294;5.152;2024-03-22T04:53:01;36.20;;;12.50;;
51288;SDS011;37372;52.294;5.152;2024-03-22T04:55:27;33.57;;;12.20;;
51288;SDS011;37372;52.294;5.152;2024-03-22T04:57:53;33.25;;;11.65;;
51288;SDS011;37372;52.294;5.152;2024-03-22T05:00:18;32.00;;;12.37;;
51288;SDS011;37372;52.294;5.152;2024-03-22T05:02:44;27.13;;;11.00;;
51288;SDS011;37372;52.294;5.152;2024-03-22T05:05:10;33.53;;;11.93;;
51288;SDS011;37372;52.294;5.152;2024-03-22T05:07:36;30.98;;;11.00;;
51288;SDS011;37372;52.294;5.152;2024-03-22T05:10:04;32.83;;;10.70;;
51288;SDS011;37372;52.294;5.152;2024-03-22T05:12:30;37.63;;;11.90;;
51288;SDS011;37372;52.294;5.152;2024-03-22T05:14:56;41.07;;;11.73;;
51288;SDS011;37372;52.294;5.152;2024-03-22T05:17:22;34.05;;;11.30;;
51288;SDS011;37372;52.294;5.152;2024-03-22T05:19:48;30.00;;;10.63;;
51288;SDS011;37372;52.294;5.152;2024-03-22T05:22:13;35.20;;;11.57;;
51288;SDS011;37372;52.294;5.152;2024-03-22T05:24:39;29.63;;;10.25;;
51288;SDS011;37372;52.294;5.152;2024-03-22T05:27:05;31.17;;;10.87;;
51288;SDS011;37372;52.294;5.152;2024-03-22T05:29:34;33.88;;;10.90;;
51288;SDS011;37372;52.294;5.152;2024-03-22T05:31:59;33.50;;;10.73;;
51288;SDS011;37372;52.294;5.152;2024-03-22T05:34:25;29.30;;;10.30;;
51288;SDS011;37372;52.294;5.152;2024-03-22T05:36:51;29.38;;;10.52;;
51288;SDS011;37372;52.294;5.152;2024-03-22T05:39:16;33.00;;;9.63;;
51288;SDS011;37372;52.294;5.152;2024-03-22T05:41:43;29.77;;;9.93;;
51288;SDS011;37372;52.294;5.152;2024-03-22T05:44:09;28.97;;;11.07;;
51288;SDS011;37372;52.294;5.152;2024-03-22T05:46:35;28.95;;;9.65;;
51288;SDS011;37372;52.294;5.152;2024-03-22T05:49:00;30.27;;;10.60;;
51288;SDS011;37372;52.294;5.152;2024-03-22T05:51:25;30.63;;;10.13;;
51288;SDS011;37372;52.294;5.152;2024-03-22T05:53:51;29.80;;;10.45;;
51288;SDS011;37372;52.294;5.152;2024-03-22T05:56:16;30.27;;;9.63;;
51288;SDS011;37372;52.294;5.152;2024-03-22T05:58:42;38.72;;;10.57;;
51288;SDS011;37372;52.294;5.152;2024-03-22T06:01:07;29.93;;;10.70;;
51288;SDS011;37372;52.294;5.152;2024-03-22T06:03:33;33.87;;;10.53;;
51288;SDS011;37372;52.294;5.152;2024-03-22T06:06:01;30.00;;;10.17;;
51288;SDS011;37372;52.294;5.152;2024-03-22T06:08:27;26.58;;;10.15;;
51288;SDS011;37372;52.294;5.152;2024-03-22T06:10:54;30.37;;;10.40;;
51288;SDS011;37372;52.294;5.152;2024-03-22T06:13:23;34.90;;;10.23;;
51288;SDS011;37372;52.294;5.152;2024-03-22T06:15:53;30.45;;;10.63;;
51288;SDS011;37372;52.294;5.152;2024-03-22T06:18:20;31.37;;;10.67;;
51288;SDS011;37372;52.294;5.152;2024-03-22T06:20:48;30.60;;;10.30;;
51288;SDS011;37372;52.294;5.152;2024-03-22T06:23:14;29.42;;;10.40;;
51288;SDS011;37372;52.294;5.152;2024-03-22T06:25:39;28.77;;;9.87;;
51288;SDS011;37372;52.294;5.152;2024-03-22T06:28:05;30.20;;;10.17;;
51288;SDS011;37372;52.294;5.152;2024-03-22T06:30:30;26.83;;;9.97;;
51288;SDS011;37372;52.294;5.152;2024-03-22T06:32:55;25.25;;;9.25;;
51288;SDS011;37372;52.294;5.152;2024-03-22T06:35:21;30.13;;;10.10;;
51288;SDS011;37372;52.294;5.152;2024-03-22T06:37:47;29.77;;;8.80;;
51288;SDS011;37372;52.294;5.152;2024-03-22T06:40:13;28.70;;;8.75;;
51288;SDS011;37372;52.294;5.152;2024-03-22T06:42:39;28.63;;;9.73;;
51288;SDS011;37372;52.294;5.152;2024-03-22T06:45:05;25.07;;;9.07;;
51288;SDS011;37372;52.294;5.152;2024-03-22T06:47:31;27.45;;;9.20;;
51288;SDS011;37372;52.294;5.152;2024-03-22T06:49:57;27.73;;;9.07;;
51288;SDS011;37372;52.294;5.152;2024-03-22T06:52:23;28.42;;;8.85;;
51288;SDS011;37372;52.294;5.152;2024-03-22T06:54:48;28.63;;;8.52;;
51288;SDS011;37372;52.294;5.152;2024-03-22T06:57:13;23.30;;;8.00;;
51288;SDS011;37372;52.294;5.152;2024-03-22T06:59:39;27.77;;;8.40;;
51288;SDS011;37372;52.294;5.152;2024-03-22T07:02:05;22.90;;;7.78;;
51288;SDS011;37372;52.294;5.152;2024-03-22T07:04:30;28.53;;;8.47;;
51288;SDS011;37372;52.294;5.152;2024-03-22T07:06:56;23.27;;;8.53;;
51288;SDS011;37372;52.294;5.152;2024-03-22T07:09:21;27.40;;;8.53;;
51288;SDS011;37372;52.294;5.152;2024-03-22T07:11:49;28.20;;;7.95;;
51288;SDS011;37372;52.294;5.152;2024-03-22T07:14:36;22.53;;;7.93;;
51288;SDS011;37372;52.294;5.152;2024-03-22T07:17:01;23.08;;;8.13;;
51288;SDS011;37372;52.294;5.152;2024-03-22T07:19:31;30.15;;;9.13;;
51288;SDS011;37372;52.294;5.152;2024-03-22T07:21:57;25.67;;;8.50;;
51288;SDS011;37372;52.294;5.152;2024-03-22T07:24:24;27.52;;;8.63;;
51288;SDS011;37372;52.294;5.152;2024-03-22T07:26:52;24.67;;;8.70;;
51288;SDS011;37372;52.294;5.152;2024-03-22T07:29:18;20.52;;;8.40;;
51288;SDS011;37372;52.294;5.152;2024-03-22T07:31:43;28.43;;;8.53;;
51288;SDS011;37372;52.294;5.152;2024-03-22T07:34:08;24.90;;;8.47;;
51288;SDS011;37372;52.294;5.152;2024-03-22T07:36:37;24.90;;;8.83;;
51288;SDS011;37372;52.294;5.152;2024-03-22T07:39:04;24.63;;;8.43;;
51288;SDS011;37372;52.294;5.152;2024-03-22T07:41:33;24.90;;;8.85;;
51288;SDS011;37372;52.294;5.152;2024-03-22T07:44:01;25.63;;;8.40;;
51288;SDS011;37372;52.294;5.152;2024-03-22T07:46:27;24.40;;;8.77;;
51288;SDS011;37372;52.294;5.152;2024-03-22T07:48:53;26.80;;;8.50;;
51288;SDS011;37372;52.294;5.152;2024-03-22T07:51:19;24.97;;;8.50;;
51288;SDS011;37372;52.294;5.152;2024-03-22T07:53:45;24.35;;;7.72;;
51288;SDS011;37372;52.294;5.152;2024-03-22T07:56:11;23.88;;;8.50;;
51288;SDS011;37372;52.294;5.152;2024-03-22T07:58:38;18.87;;;7.83;;
51288;SDS011;37372;52.294;5.152;2024-03-22T08:01:03;23.58;;;7.57;;
51288;SDS011;37372;52.294;5.152;2024-03-22T08:03:29;17.83;;;7.33;;
51288;SDS011;37372;52.294;5.152;2024-03-22T08:05:54;22.15;;;8.05;;
51288;SDS011;37372;52.294;5.152;2024-03-22T08:08:19;23.80;;;7.53;;
51288;SDS011;37372;52.294;5.152;2024-03-22T08:10:45;24.70;;;8.20;;
51288;SDS011;37372;52.294;5.152;2024-03-22T08:13:10;26.67;;;7.67;;
51288;SDS011;37372;52.294;5.152;2024-03-22T08:15:39;21.40;;;8.73;;
51288;SDS011;37372;52.294;5.152;2024-03-22T08:18:05;21.37;;;8.70;;
51288;SDS011;37372;52.294;5.152;2024-03-22T08:20:31;20.45;;;7.95;;
51288;SDS011;37372;52.294;5.152;2024-03-22T08:22:59;21.58;;;8.65;;
51288;SDS011;37372;52.294;5.152;2024-03-22T08:25:24;25.93;;;8.57;;
51288;SDS011;37372;52.294;5.152;2024-03-22T08:27:50;23.63;;;8.50;;
51288;SDS011;37372;52.294;5.152;2024-03-22T08:30:15;31.03;;;8.40;;
51288;SDS011;37372;52.294;5.152;2024-03-22T08:32:43;28.30;;;9.27;;
51288;SDS011;37372;52.294;5.152;2024-03-22T08:35:09;26.47;;;9.00;;
51288;SDS011;37372;52.294;5.152;2024-03-22T08:37:34;20.98;;;8.35;;
51288;SDS011;37372;52.294;5.152;2024-03-22T08:40:03;27.97;;;9.60;;
51288;SDS011;37372;52.294;5.152;2024-03-22T08:42:32;27.83;;;8.87;;
51288;SDS011;37372;52.294;5.152;2024-03-22T08:45:04;28.13;;;9.00;;
51288;SDS011;37372;52.294;5.152;2024-03-22T08:47:32;24.35;;;8.57;;
51288;SDS011;37372;52.294;5.152;2024-03-22T08:49:59;30.30;;;9.40;;
51288;SDS011;37372;52.294;5.152;2024-03-22T08:52:31;28.92;;;9.18;;
51288;SDS011;37372;52.294;5.152;2024-03-22T08:54:59;24.55;;;8.25;;
51288;SDS011;37372;52.294;5.152;2024-03-22T08:57:37;25.42;;;9.05;;
51288;SDS011;37372;52.294;5.152;2024-03-22T09:00:05;24.10;;;9.00;;
51288;SDS011;37372;52.294;5.152;2024-03-22T09:02:36;30.40;;;9.55;;
51288;SDS011;37372;52.294;5.152;2024-03-22T09:05:07;21.77;;;9.00;;
51288;SDS011;37372;52.294;5.152;2024-03-22T09:07:34;26.35;;;9.95;;
51288;SDS011;37372;52.294;5.152;2024-03-22T09:09:59;26.73;;;9.33;;
51288;SDS011;37372;52.294;5.152;2024-03-22T09:12:25;24.33;;;9.83;;
51288;SDS011;37372;52.294;5.152;2024-03-22T09:14:50;25.77;;;10.00;;
51288;SDS011;37372;52.294;5.152;2024-03-22T09:17:19;30.80;;;9.93;;
51288;SDS011;37372;52.294;5.152;2024-03-22T09:19:48;22.42;;;9.02;;
51288;SDS011;37372;52.294;5.152;2024-03-22T09:22:13;24.40;;;9.07;;
51288;SDS011;37372;52.294;5.152;2024-03-22T09:24:40;23.45;;;9.00;;
51288;SDS011;37372;52.294;5.152;2024-03-22T09:27:05;26.53;;;9.80;;
51288;SDS011;37372;52.294;5.152;2024-03-22T09:29:33;21.48;;;9.00;;
51288;SDS011;37372;52.294;5.152;2024-03-22T09:31:59;29.47;;;9.57;;
51288;SDS011;37372;52.294;5.152;2024-03-22T09:34:24;27.50;;;9.40;;
51288;SDS011;37372;52.294;5.152;2024-03-22T09:36:53;26.83;;;9.40;;
51288;SDS011;37372;52.294;5.152;2024-03-22T09:39:21;22.87;;;8.90;;
51288;SDS011;37372;52.294;5.152;2024-03-22T09:41:57;22.98;;;8.55;;
51288;SDS011;37372;52.294;5.152;2024-03-22T09:44:24;22.83;;;9.27;;
51288;SDS011;37372;52.294;5.152;2024-03-22T09:46:52;23.20;;;8.95;;
51288;SDS011;37372;52.294;5.152;2024-03-22T09:49:18;21.97;;;9.63;;
51288;SDS011;37372;52.294;5.152;2024-03-22T09:51:43;23.27;;;8.73;;
51288;SDS011;37372;52.294;5.152;2024-03-22T09:54:10;25.07;;;9.57;;
51288;SDS011;37372;52.294;5.152;2024-03-22T09:56:45;25.50;;;8.73;;
51288;SDS011;37372;52.294;5.152;2024-03-22T09:59:19;22.40;;;9.10;;
51288;SDS011;37372;52.294;5.152;2024-03-22T10:01:46;27.50;;;8.88;;
51288;SDS011;37372;52.294;5.152;2024-03-22T10:04:16;24.27;;;9.10;;
51288;SDS011;37372;52.294;5.152;2024-03-22T10:06:46;20.23;;;9.25;;
51288;SDS011;37372;52.294;5.152;2024-03-22T10:09:13;22.50;;;8.97;;
51288;SDS011;37372;52.294;5.152;2024-03-22T10:12:23;21.92;;;8.82;;
51288;SDS011;37372;52.294;5.152;2024-03-22T10:14:30;25.67;;;8.97;;
51288;SDS011;37372;52.294;5.152;2024-03-22T10:16:57;20.13;;;8.80;;
51288;SDS011;37372;52.294;5.152;2024-03-22T10:19:23;20.48;;;8.60;;
51288;SDS011;37372;52.294;5.152;2024-03-22T10:22:02;20.77;;;8.87;;
51288;SDS011;37372;52.294;5.152;2024-03-22T10:24:29;18.08;;;8.60;;
51288;SDS011;37372;52.294;5.152;2024-03-22T10:26:58;24.38;;;9.25;;
51288;SDS011;37372;52.294;5.152;2024-03-22T10:29:24;20.48;;;8.52;;
51288;SDS011;37372;52.294;5.152;2024-03-22T10:31:53;19.37;;;9.63;;
51288;SDS011;37372;52.294;5.152;2024-03-22T10:34:20;19.60;;;8.95;;
51288;SDS011;37372;52.294;5.152;2024-03-22T10:36:47;19.30;;;8.30;;
51288;SDS011;37372;52.294;5.152;2024-03-22T10:39:15;20.83;;;8.90;;
51288;SDS011;37372;52.294;5.152;2024-03-22T10:41:48;19.92;;;9.13;;
51288;SDS011;37372;52.294;5.152;2024-03-22T10:44:16;23.42;;;9.60;;
51288;SDS011;37372;52.294;5.152;2024-03-22T10:46:48;19.55;;;8.80;;
51288;SDS011;37372;52.294;5.152;2024-03-22T10:49:18;20.60;;;9.65;;
51288;SDS011;37372;52.294;5.152;2024-03-22T10:51:46;23.17;;;10.40;;
51288;SDS011;37372;52.294;5.152;2024-03-22T10:54:21;21.55;;;9.75;;
51288;SDS011;37372;52.294;5.152;2024-03-22T10:56:55;18.23;;;8.20;;
51288;SDS011;37372;52.294;5.152;2024-03-22T10:59:22;21.52;;;9.30;;
51288;SDS011;37372;52.294;5.152;2024-03-22T11:01:49;24.40;;;9.40;;
51288;SDS011;37372;52.294;5.152;2024-03-22T11:04:21;20.55;;;8.98;;
51288;SDS011;37372;52.294;5.152;2024-03-22T11:06:51;22.60;;;8.70;;
51288;SDS011;37372;52.294;5.152;2024-03-22T11:09:26;23.27;;;9.10;;
51288;SDS011;37372;52.294;5.152;2024-03-22T11:11:55;18.02;;;8.43;;
51288;SDS011;37372;52.294;5.152;2024-03-22T11:14:25;17.25;;;8.57;;
51288;SDS011;37372;52.294;5.152;2024-03-22T11:16:51;20.60;;;9.00;;
51288;SDS011;37372;52.294;5.152;2024-03-22T11:19:23;17.63;;;8.23;;
51288;SDS011;37372;52.294;5.152;2024-03-22T11:21:51;17.50;;;7.95;;
51288;SDS011;37372;52.294;5.152;2024-03-22T11:24:17;19.05;;;8.10;;
51288;SDS011;37372;52.294;5.152;2024-03-22T11:26:42;16.67;;;7.93;;
51288;SDS011;37372;52.294;5.152;2024-03-22T11:29:09;17.25;;;7.53;;
51288;SDS011;37372;52.294;5.152;2024-03-22T11:31:34;20.20;;;8.20;;
51288;SDS011;37372;52.294;5.152;2024-03-22T11:34:00;16.93;;;8.27;;
51288;SDS011;37372;52.294;5.152;2024-03-22T11:36:28;18.83;;;8.05;;
51288;SDS011;37372;52.294;5.152;2024-03-22T11:38:54;17.23;;;8.02;;
51288;SDS011;37372;52.294;5.152;2024-03-22T11:41:24;19.17;;;8.77;;
51288;SDS011;37372;52.294;5.152;2024-03-22T11:43:55;17.48;;;8.35;;
51288;SDS011;37372;52.294;5.152;2024-03-22T11:46:25;19.27;;;8.50;;
51288;SDS011;37372;52.294;5.152;2024-03-22T11:48:54;18.10;;;8.93;;
51288;SDS011;37372;52.294;5.152;2024-03-22T11:51:22;20.63;;;8.98;;
51288;SDS011;37372;52.294;5.152;2024-03-22T11:53:51;19.40;;;9.40;;
51288;SDS011;37372;52.294;5.152;2024-03-22T11:56:19;20.67;;;9.38;;
51288;SDS011;37372;52.294;5.152;2024-03-22T11:58:45;22.23;;;10.57;;
51288;SDS011;37372;52.294;5.152;2024-03-22T12:01:16;25.33;;;10.90;;
51288;SDS011;37372;52.294;5.152;2024-03-22T12:03:45;23.23;;;10.63;;
51288;SDS011;37372;52.294;5.152;2024-03-22T12:06:12;23.85;;;10.52;;
51288;SDS011;37372;52.294;5.152;2024-03-22T12:08:38;24.40;;;10.90;;
51288;SDS011;37372;52.294;5.152;2024-03-22T12:11:06;22.65;;;10.77;;
51288;SDS011;37372;52.294;5.152;2024-03-22T12:13:35;24.88;;;10.50;;
51288;SDS011;37372;52.294;5.152;2024-03-22T12:16:03;23.73;;;10.70;;
51288;SDS011;37372;52.294;5.152;2024-03-22T12:18:30;28.50;;;10.80;;
51288;SDS011;37372;52.294;5.152;2024-03-22T12:20:55;22.40;;;10.60;;
51288;SDS011;37372;52.294;5.152;2024-03-22T12:23:20;21.40;;;10.68;;
51288;SDS011;37372;52.294;5.152;2024-03-22T12:25:52;25.43;;;9.93;;
51288;SDS011;37372;52.294;5.152;2024-03-22T12:28:18;19.55;;;8.50;;
51288;SDS011;37372;52.294;5.152;2024-03-22T12:30:51;19.70;;;8.57;;
51288;SDS011;37372;52.294;5.152;2024-03-22T12:33:17;22.15;;;8.88;;
51288;SDS011;37372;52.294;5.152;2024-03-22T12:35:43;19.50;;;8.90;;
51288;SDS011;37372;52.294;5.152;2024-03-22T12:38:09;20.02;;;8.43;;
51288;SDS011;37372;52.294;5.152;2024-03-22T12:40:37;16.20;;;7.57;;
51288;SDS011;37372;52.294;5.152;2024-03-22T12:43:03;20.17;;;7.97;;
51288;SDS011;37372;52.294;5.152;2024-03-22T12:45:32;15.97;;;7.77;;
51288;SDS011;37372;52.294;5.152;2024-03-22T12:47:58;19.30;;;8.23;;
51288;SDS011;37372;52.294;5.152;2024-03-22T12:50:26;23.70;;;9.02;;
51288;SDS011;37372;52.294;5.152;2024-03-22T12:52:53;18.73;;;8.27;;
51288;SDS011;37372;52.294;5.152;2024-03-22T12:55:18;20.40;;;8.23;;
51288;SDS011;37372;52.294;5.152;2024-03-22T12:57:44;27.23;;;8.65;;
51288;SDS011;37372;52.294;5.152;2024-03-22T13:00:10;17.97;;;7.57;;
51288;SDS011;37372;52.294;5.152;2024-03-22T13:02:43;16.83;;;7.53;;
51288;SDS011;37372;52.294;5.152;2024-03-22T13:05:08;16.63;;;7.23;;
51288;SDS011;37372;52.294;5.152;2024-03-22T13:07:34;15.63;;;7.18;;
51288;SDS011;37372;52.294;5.152;2024-03-22T13:10:01;18.30;;;7.15;;
51288;SDS011;37372;52.294;5.152;2024-03-22T13:12:27;20.17;;;7.50;;
51288;SDS011;37372;52.294;5.152;2024-03-22T13:14:58;13.77;;;6.63;;
51288;SDS011;37372;52.294;5.152;2024-03-22T13:17:24;17.80;;;7.03;;
51288;SDS011;37372;52.294;5.152;2024-03-22T13:19:50;18.42;;;6.88;;
51288;SDS011;37372;52.294;5.152;2024-03-22T13:22:25;16.90;;;6.77;;
51288;SDS011;37372;52.294;5.152;2024-03-22T13:24:50;16.42;;;6.40;;
51288;SDS011;37372;52.294;5.152;2024-03-22T13:27:19;15.17;;;6.37;;
51288;SDS011;37372;52.294;5.152;2024-03-22T13:29:54;20.52;;;6.57;;
51288;SDS011;37372;52.294;5.152;2024-03-22T13:32:25;15.65;;;6.90;;
51288;SDS011;37372;52.294;5.152;2024-03-22T13:34:51;16.80;;;6.10;;
51288;SDS011;37372;52.294;5.152;2024-03-22T13:37:17;14.10;;;5.70;;
51288;SDS011;37372;52.294;5.152;2024-03-22T13:39:49;15.38;;;4.95;;
51288;SDS011;37372;52.294;5.152;2024-03-22T13:42:17;13.40;;;5.40;;
51288;SDS011;37372;52.294;5.152;2024-03-22T13:44:44;15.32;;;5.40;;
51288;SDS011;37372;52.294;5.152;2024-03-22T13:47:10;11.67;;;5.67;;
51288;SDS011;37372;52.294;5.152;2024-03-22T13:49:35;16.60;;;5.40;;
51288;SDS011;37372;52.294;5.152;2024-03-22T13:52:01;16.00;;;5.37;;
51288;SDS011;37372;52.294;5.152;2024-03-22T13:54:26;13.13;;;4.93;;
51288;SDS011;37372;52.294;5.152;2024-03-22T13:59:28;14.70;;;5.10;;
51288;SDS011;37372;52.294;5.152;2024-03-22T14:01:57;16.52;;;5.35;;
51288;SDS011;37372;52.294;5.152;2024-03-22T14:04:25;16.77;;;5.20;;
51288;SDS011;37372;52.294;5.152;2024-03-22T14:06:52;13.18;;;5.15;;
51288;SDS011;37372;52.294;5.152;2024-03-22T14:09:17;15.77;;;5.30;;
51288;SDS011;37372;52.294;5.152;2024-03-22T14:11:43;20.43;;;5.20;;
51288;SDS011;37372;52.294;5.152;2024-03-22T14:14:09;12.13;;;4.43;;
51288;SDS011;37372;52.294;5.152;2024-03-22T14:16:39;17.53;;;5.53;;
51288;SDS011;37372;52.294;5.152;2024-03-22T14:19:10;15.52;;;5.13;;
51288;SDS011;37372;52.294;5.152;2024-03-22T14:21:35;21.92;;;4.90;;
51288;SDS011;37372;52.294;5.152;2024-03-22T14:24:03;23.17;;;5.28;;
51288;SDS011;37372;52.294;5.152;2024-03-22T14:26:33;17.83;;;5.20;;
51288;SDS011;37372;52.294;5.152;2024-03-22T14:28:58;17.43;;;4.60;;
51288;SDS011;37372;52.294;5.152;2024-03-22T14:31:26;15.80;;;5.35;;